KONA

Winona Municipal-Max Conrad Field Airport

Winona, Minnesota, USA
METAR KONA 162255Z AUTO 27003KT 10SM CLR 03/M02 A3014 RMK AO2
Observed Flight Rules
Dec-16 @ 22:55 UTC (8 minutes ago) Visual Flight Rules
Wind Visibility Clouds
270° at 3 knots 10 miles
  • Clear skies
Temperatures Readings
Current 3°C / 37°F
Dewpoint -2°C / 28°F
Humidity 70%
Altimeter 30.14" Hg
Pressure 1021 hPa
Elevation 200
METAR KONA 162255Z AUTO 27003KT 10SM CLR 03/M02 A3014 RMK AO2
Observed Flight Rules
Dec-16 @ 22:55 UTC
(8 minutes ago)
VFR
Wind Visibility
270° at 3 knots 10 miles
Clouds
  • Clear skies
Temperature Dewpoint
3°C / 37°F -2°C / 28°F
Humidity Altimeter Pressure
70% 30.14" Hg 1021 hPa